Mc Clure, Virginia
Current Conditions -  °F | °C
As of 3:15 AM on Tuesday 21 Oct 2014 (Local Time) from KLNP Reporting Station
Overcast Overcast  
Wind Chill: 50°   Ceiling: 9000
Heat Index: 50°   Visibility: 10mi
Dew Point: 48°   Wind: 5mph
Humidity: 94%   Direction: 240°WSW
Pressure: 30"   Gusts: NA
Location:  37.082°N, 82.3827°W
Report Text: KLNP 210715Z AUTO 24004KT 10SM SCT020 OVC090 10/09 A3000 RMK AO2
Loading
Personal Weather Stations






























Interactive Weather Map
Tropical Storm Tracking
New forecast layout! Learn more

10-Day Weather Forecast

Advertisements
Track Severe Weather on mobile